sensor_id;sensor_type;location;lat;lon;timestamp;P1;durP1;ratioP1;P2;durP2;ratioP2
34783;SDS011;20998;51.388;7.032;2024-02-28T00:02:09;15.97;;;8.70;;
34783;SDS011;20998;51.388;7.032;2024-02-28T00:04:35;21.23;;;7.50;;
34783;SDS011;20998;51.388;7.032;2024-02-28T00:07:01;17.40;;;7.30;;
34783;SDS011;20998;51.388;7.032;2024-02-28T00:09:27;19.37;;;7.93;;
34783;SDS011;20998;51.388;7.032;2024-02-28T00:11:53;17.60;;;6.97;;
34783;SDS011;20998;51.388;7.032;2024-02-28T00:14:19;11.53;;;6.40;;
34783;SDS011;20998;51.388;7.032;2024-02-28T00:16:45;34.90;;;8.53;;
34783;SDS011;20998;51.388;7.032;2024-02-28T00:19:13;37.23;;;7.40;;
34783;SDS011;20998;51.388;7.032;2024-02-28T00:21:39;69.53;;;7.43;;
34783;SDS011;20998;51.388;7.032;2024-02-28T00:24:05;23.07;;;7.17;;
34783;SDS011;20998;51.388;7.032;2024-02-28T00:26:32;26.13;;;7.10;;
34783;SDS011;20998;51.388;7.032;2024-02-28T00:28:58;41.00;;;7.03;;
34783;SDS011;20998;51.388;7.032;2024-02-28T00:31:24;38.23;;;6.30;;
34783;SDS011;20998;51.388;7.032;2024-02-28T00:33:50;31.83;;;6.43;;
34783;SDS011;20998;51.388;7.032;2024-02-28T00:36:16;18.03;;;6.00;;
34783;SDS011;20998;51.388;7.032;2024-02-28T00:38:42;12.17;;;5.80;;
34783;SDS011;20998;51.388;7.032;2024-02-28T00:41:08;13.97;;;6.87;;
34783;SDS011;20998;51.388;7.032;2024-02-28T00:43:33;13.73;;;6.83;;
34783;SDS011;20998;51.388;7.032;2024-02-28T00:45:59;14.53;;;7.73;;
34783;SDS011;20998;51.388;7.032;2024-02-28T00:48:25;14.30;;;5.83;;
34783;SDS011;20998;51.388;7.032;2024-02-28T00:50:52;13.40;;;6.97;;
34783;SDS011;20998;51.388;7.032;2024-02-28T00:53:18;21.40;;;6.73;;
34783;SDS011;20998;51.388;7.032;2024-02-28T00:55:44;15.13;;;7.30;;
34783;SDS011;20998;51.388;7.032;2024-02-28T00:58:10;15.43;;;6.53;;
34783;SDS011;20998;51.388;7.032;2024-02-28T01:00:36;17.07;;;7.17;;
34783;SDS011;20998;51.388;7.032;2024-02-28T01:03:01;18.73;;;6.53;;
34783;SDS011;20998;51.388;7.032;2024-02-28T01:05:33;22.50;;;8.87;;
34783;SDS011;20998;51.388;7.032;2024-02-28T01:08:00;16.40;;;6.87;;
34783;SDS011;20998;51.388;7.032;2024-02-28T01:10:26;20.47;;;7.87;;
34783;SDS011;20998;51.388;7.032;2024-02-28T01:12:52;14.87;;;6.53;;
34783;SDS011;20998;51.388;7.032;2024-02-28T01:15:18;15.30;;;7.37;;
34783;SDS011;20998;51.388;7.032;2024-02-28T01:17:44;17.60;;;7.07;;
34783;SDS011;20998;51.388;7.032;2024-02-28T01:20:10;23.77;;;7.27;;
34783;SDS011;20998;51.388;7.032;2024-02-28T01:22:36;17.63;;;5.43;;
34783;SDS011;20998;51.388;7.032;2024-02-28T01:25:02;44.93;;;6.00;;
34783;SDS011;20998;51.388;7.032;2024-02-28T01:27:28;13.20;;;6.03;;
34783;SDS011;20998;51.388;7.032;2024-02-28T01:29:54;21.80;;;7.13;;
34783;SDS011;20998;51.388;7.032;2024-02-28T01:32:20;26.80;;;5.33;;
34783;SDS011;20998;51.388;7.032;2024-02-28T01:34:46;39.17;;;6.87;;
34783;SDS011;20998;51.388;7.032;2024-02-28T01:37:12;19.10;;;7.30;;
34783;SDS011;20998;51.388;7.032;2024-02-28T01:39:38;17.47;;;6.23;;
34783;SDS011;20998;51.388;7.032;2024-02-28T01:42:04;11.80;;;6.53;;
34783;SDS011;20998;51.388;7.032;2024-02-28T01:44:30;20.10;;;7.23;;
34783;SDS011;20998;51.388;7.032;2024-02-28T01:46:56;15.73;;;6.70;;
34783;SDS011;20998;51.388;7.032;2024-02-28T01:49:23;12.07;;;6.87;;
34783;SDS011;20998;51.388;7.032;2024-02-28T01:51:49;14.97;;;6.97;;
34783;SDS011;20998;51.388;7.032;2024-02-28T01:54:16;16.97;;;6.47;;
34783;SDS011;20998;51.388;7.032;2024-02-28T01:56:43;18.43;;;8.50;;
34783;SDS011;20998;51.388;7.032;2024-02-28T01:59:09;16.90;;;6.63;;
34783;SDS011;20998;51.388;7.032;2024-02-28T02:01:36;15.63;;;6.93;;
34783;SDS011;20998;51.388;7.032;2024-02-28T02:04:02;21.37;;;8.27;;
34783;SDS011;20998;51.388;7.032;2024-02-28T02:06:29;17.00;;;7.80;;
34783;SDS011;20998;51.388;7.032;2024-02-28T02:08:55;15.43;;;8.23;;
34783;SDS011;20998;51.388;7.032;2024-02-28T02:11:21;17.20;;;7.87;;
34783;SDS011;20998;51.388;7.032;2024-02-28T02:13:51;16.27;;;7.23;;
34783;SDS011;20998;51.388;7.032;2024-02-28T02:16:17;20.27;;;8.07;;
34783;SDS011;20998;51.388;7.032;2024-02-28T02:18:43;18.57;;;7.97;;
34783;SDS011;20998;51.388;7.032;2024-02-28T02:21:10;31.60;;;9.17;;
34783;SDS011;20998;51.388;7.032;2024-02-28T02:23:37;19.40;;;9.50;;
34783;SDS011;20998;51.388;7.032;2024-02-28T02:26:06;23.83;;;10.27;;
34783;SDS011;20998;51.388;7.032;2024-02-28T02:28:32;24.67;;;9.50;;
34783;SDS011;20998;51.388;7.032;2024-02-28T02:30:58;16.17;;;7.63;;
34783;SDS011;20998;51.388;7.032;2024-02-28T02:33:24;21.70;;;9.40;;
34783;SDS011;20998;51.388;7.032;2024-02-28T02:35:51;20.13;;;9.73;;
34783;SDS011;20998;51.388;7.032;2024-02-28T02:38:18;23.93;;;9.17;;
34783;SDS011;20998;51.388;7.032;2024-02-28T02:40:47;19.50;;;7.80;;
34783;SDS011;20998;51.388;7.032;2024-02-28T02:43:17;25.50;;;11.00;;
34783;SDS011;20998;51.388;7.032;2024-02-28T02:45:43;23.83;;;10.07;;
34783;SDS011;20998;51.388;7.032;2024-02-28T02:48:09;35.60;;;11.53;;
34783;SDS011;20998;51.388;7.032;2024-02-28T02:50:35;21.97;;;11.10;;
34783;SDS011;20998;51.388;7.032;2024-02-28T02:53:02;28.43;;;11.23;;
34783;SDS011;20998;51.388;7.032;2024-02-28T02:55:28;28.97;;;11.63;;
34783;SDS011;20998;51.388;7.032;2024-02-28T02:57:54;26.83;;;11.63;;
34783;SDS011;20998;51.388;7.032;2024-02-28T03:00:20;33.43;;;10.37;;
34783;SDS011;20998;51.388;7.032;2024-02-28T03:02:47;23.27;;;10.50;;
34783;SDS011;20998;51.388;7.032;2024-02-28T03:05:13;28.67;;;10.93;;
34783;SDS011;20998;51.388;7.032;2024-02-28T03:07:39;23.40;;;12.10;;
34783;SDS011;20998;51.388;7.032;2024-02-28T03:10:05;26.97;;;11.23;;
34783;SDS011;20998;51.388;7.032;2024-02-28T03:12:31;34.57;;;13.33;;
34783;SDS011;20998;51.388;7.032;2024-02-28T03:14:57;62.67;;;13.60;;
34783;SDS011;20998;51.388;7.032;2024-02-28T03:17:23;31.47;;;11.83;;
34783;SDS011;20998;51.388;7.032;2024-02-28T03:19:49;29.40;;;10.50;;
34783;SDS011;20998;51.388;7.032;2024-02-28T03:22:15;26.93;;;11.67;;
34783;SDS011;20998;51.388;7.032;2024-02-28T03:24:41;30.43;;;11.90;;
34783;SDS011;20998;51.388;7.032;2024-02-28T03:27:07;33.70;;;12.00;;
34783;SDS011;20998;51.388;7.032;2024-02-28T03:29:33;27.17;;;12.03;;
34783;SDS011;20998;51.388;7.032;2024-02-28T03:31:59;30.47;;;12.37;;
34783;SDS011;20998;51.388;7.032;2024-02-28T03:34:25;25.87;;;10.60;;
34783;SDS011;20998;51.388;7.032;2024-02-28T03:36:51;28.47;;;12.77;;
34783;SDS011;20998;51.388;7.032;2024-02-28T03:39:17;22.53;;;11.87;;
34783;SDS011;20998;51.388;7.032;2024-02-28T03:41:43;36.13;;;12.50;;
34783;SDS011;20998;51.388;7.032;2024-02-28T03:44:09;33.23;;;14.07;;
34783;SDS011;20998;51.388;7.032;2024-02-28T03:46:35;44.27;;;13.90;;
34783;SDS011;20998;51.388;7.032;2024-02-28T03:49:01;28.40;;;12.37;;
34783;SDS011;20998;51.388;7.032;2024-02-28T03:51:27;35.93;;;14.27;;
34783;SDS011;20998;51.388;7.032;2024-02-28T03:53:54;39.73;;;12.40;;
34783;SDS011;20998;51.388;7.032;2024-02-28T03:56:23;29.10;;;11.13;;
34783;SDS011;20998;51.388;7.032;2024-02-28T03:58:50;30.50;;;11.80;;
34783;SDS011;20998;51.388;7.032;2024-02-28T04:01:16;27.90;;;10.43;;
34783;SDS011;20998;51.388;7.032;2024-02-28T04:03:42;38.37;;;12.87;;
34783;SDS011;20998;51.388;7.032;2024-02-28T04:06:08;39.07;;;13.00;;
34783;SDS011;20998;51.388;7.032;2024-02-28T04:08:34;28.40;;;12.73;;
34783;SDS011;20998;51.388;7.032;2024-02-28T04:11:00;26.87;;;10.67;;
34783;SDS011;20998;51.388;7.032;2024-02-28T04:13:26;32.40;;;13.30;;
34783;SDS011;20998;51.388;7.032;2024-02-28T04:15:52;24.43;;;10.97;;
34783;SDS011;20998;51.388;7.032;2024-02-28T04:18:18;31.83;;;13.50;;
34783;SDS011;20998;51.388;7.032;2024-02-28T04:20:44;28.93;;;11.93;;
34783;SDS011;20998;51.388;7.032;2024-02-28T04:23:10;28.60;;;13.63;;
34783;SDS011;20998;51.388;7.032;2024-02-28T04:25:36;71.33;;;14.40;;
34783;SDS011;20998;51.388;7.032;2024-02-28T04:28:05;35.27;;;13.03;;
34783;SDS011;20998;51.388;7.032;2024-02-28T04:30:31;31.17;;;12.93;;
34783;SDS011;20998;51.388;7.032;2024-02-28T04:32:57;31.17;;;12.80;;
34783;SDS011;20998;51.388;7.032;2024-02-28T04:35:23;91.23;;;14.27;;
34783;SDS011;20998;51.388;7.032;2024-02-28T04:37:49;28.83;;;12.27;;
34783;SDS011;20998;51.388;7.032;2024-02-28T04:40:15;30.50;;;13.33;;
34783;SDS011;20998;51.388;7.032;2024-02-28T04:42:41;38.73;;;13.30;;
34783;SDS011;20998;51.388;7.032;2024-02-28T04:45:08;34.33;;;13.43;;
34783;SDS011;20998;51.388;7.032;2024-02-28T04:47:34;32.53;;;12.70;;
34783;SDS011;20998;51.388;7.032;2024-02-28T04:50:01;27.30;;;10.57;;
34783;SDS011;20998;51.388;7.032;2024-02-28T04:52:29;33.40;;;12.63;;
34783;SDS011;20998;51.388;7.032;2024-02-28T04:54:55;39.80;;;11.73;;
34783;SDS011;20998;51.388;7.032;2024-02-28T04:57:21;21.27;;;11.33;;
34783;SDS011;20998;51.388;7.032;2024-02-28T04:59:47;40.30;;;16.03;;
34783;SDS011;20998;51.388;7.032;2024-02-28T05:02:14;27.57;;;12.83;;
34783;SDS011;20998;51.388;7.032;2024-02-28T05:04:40;30.20;;;13.90;;
34783;SDS011;20998;51.388;7.032;2024-02-28T05:07:06;25.30;;;12.87;;
34783;SDS011;20998;51.388;7.032;2024-02-28T05:09:32;25.67;;;12.63;;
34783;SDS011;20998;51.388;7.032;2024-02-28T05:11:58;27.90;;;12.70;;
34783;SDS011;20998;51.388;7.032;2024-02-28T05:14:24;40.60;;;13.53;;
34783;SDS011;20998;51.388;7.032;2024-02-28T05:16:50;33.73;;;15.73;;
34783;SDS011;20998;51.388;7.032;2024-02-28T05:19:16;52.07;;;17.37;;
34783;SDS011;20998;51.388;7.032;2024-02-28T05:21:43;36.53;;;11.63;;
34783;SDS011;20998;51.388;7.032;2024-02-28T05:24:09;50.90;;;15.43;;
34783;SDS011;20998;51.388;7.032;2024-02-28T05:26:35;37.40;;;13.90;;
34783;SDS011;20998;51.388;7.032;2024-02-28T05:29:02;28.13;;;13.23;;
34783;SDS011;20998;51.388;7.032;2024-02-28T05:31:28;42.53;;;13.70;;
34783;SDS011;20998;51.388;7.032;2024-02-28T05:33:55;33.83;;;13.97;;
34783;SDS011;20998;51.388;7.032;2024-02-28T05:36:24;32.23;;;13.17;;
34783;SDS011;20998;51.388;7.032;2024-02-28T05:38:54;36.70;;;13.70;;
34783;SDS011;20998;51.388;7.032;2024-02-28T05:41:21;37.57;;;13.73;;
34783;SDS011;20998;51.388;7.032;2024-02-28T05:43:47;51.80;;;13.97;;
34783;SDS011;20998;51.388;7.032;2024-02-28T05:46:14;43.40;;;16.87;;
34783;SDS011;20998;51.388;7.032;2024-02-28T05:48:41;44.00;;;16.07;;
34783;SDS011;20998;51.388;7.032;2024-02-28T05:51:07;42.83;;;14.37;;
34783;SDS011;20998;51.388;7.032;2024-02-28T05:53:33;35.70;;;14.23;;
34783;SDS011;20998;51.388;7.032;2024-02-28T05:56:03;39.77;;;14.37;;
34783;SDS011;20998;51.388;7.032;2024-02-28T05:58:39;40.00;;;12.97;;
34783;SDS011;20998;51.388;7.032;2024-02-28T06:01:05;36.13;;;13.90;;
34783;SDS011;20998;51.388;7.032;2024-02-28T06:03:32;38.80;;;13.57;;
34783;SDS011;20998;51.388;7.032;2024-02-28T06:05:59;38.00;;;13.63;;
34783;SDS011;20998;51.388;7.032;2024-02-28T06:08:26;35.13;;;11.87;;
34783;SDS011;20998;51.388;7.032;2024-02-28T06:10:52;27.63;;;12.20;;
34783;SDS011;20998;51.388;7.032;2024-02-28T06:13:18;36.80;;;13.43;;
34783;SDS011;20998;51.388;7.032;2024-02-28T06:15:43;32.27;;;13.77;;
34783;SDS011;20998;51.388;7.032;2024-02-28T06:18:10;29.87;;;12.00;;
34783;SDS011;20998;51.388;7.032;2024-02-28T06:20:36;34.30;;;12.27;;
34783;SDS011;20998;51.388;7.032;2024-02-28T06:23:02;41.00;;;14.63;;
34783;SDS011;20998;51.388;7.032;2024-02-28T06:25:28;36.03;;;14.07;;
34783;SDS011;20998;51.388;7.032;2024-02-28T06:27:54;34.87;;;13.67;;
34783;SDS011;20998;51.388;7.032;2024-02-28T06:30:20;41.00;;;14.03;;
34783;SDS011;20998;51.388;7.032;2024-02-28T06:32:46;32.00;;;12.47;;
34783;SDS011;20998;51.388;7.032;2024-02-28T06:35:12;37.27;;;14.13;;
34783;SDS011;20998;51.388;7.032;2024-02-28T06:37:38;35.87;;;15.10;;
34783;SDS011;20998;51.388;7.032;2024-02-28T06:40:04;39.00;;;16.10;;
34783;SDS011;20998;51.388;7.032;2024-02-28T06:42:31;37.47;;;13.37;;
34783;SDS011;20998;51.388;7.032;2024-02-28T06:44:57;38.63;;;14.03;;
34783;SDS011;20998;51.388;7.032;2024-02-28T06:47:22;32.03;;;14.23;;
34783;SDS011;20998;51.388;7.032;2024-02-28T06:49:48;28.57;;;12.30;;
34783;SDS011;20998;51.388;7.032;2024-02-28T06:52:14;26.97;;;12.27;;
34783;SDS011;20998;51.388;7.032;2024-02-28T06:54:40;31.27;;;13.27;;
34783;SDS011;20998;51.388;7.032;2024-02-28T06:57:06;44.57;;;14.97;;
34783;SDS011;20998;51.388;7.032;2024-02-28T06:59:32;27.53;;;12.20;;
34783;SDS011;20998;51.388;7.032;2024-02-28T07:01:58;40.50;;;13.73;;
34783;SDS011;20998;51.388;7.032;2024-02-28T07:04:24;39.80;;;14.80;;
34783;SDS011;20998;51.388;7.032;2024-02-28T07:06:50;35.57;;;14.30;;
34783;SDS011;20998;51.388;7.032;2024-02-28T07:09:16;28.23;;;12.03;;
34783;SDS011;20998;51.388;7.032;2024-02-28T07:11:42;33.97;;;12.77;;
34783;SDS011;20998;51.388;7.032;2024-02-28T07:14:08;33.97;;;11.30;;
34783;SDS011;20998;51.388;7.032;2024-02-28T07:16:34;49.63;;;16.43;;
34783;SDS011;20998;51.388;7.032;2024-02-28T07:19:00;39.20;;;14.53;;
34783;SDS011;20998;51.388;7.032;2024-02-28T07:21:26;26.43;;;10.93;;
34783;SDS011;20998;51.388;7.032;2024-02-28T07:23:53;37.80;;;12.50;;
34783;SDS011;20998;51.388;7.032;2024-02-28T07:26:19;25.70;;;12.00;;
34783;SDS011;20998;51.388;7.032;2024-02-28T07:28:45;28.87;;;12.57;;
34783;SDS011;20998;51.388;7.032;2024-02-28T07:31:17;38.27;;;15.00;;
34783;SDS011;20998;51.388;7.032;2024-02-28T07:33:44;33.10;;;12.53;;
34783;SDS011;20998;51.388;7.032;2024-02-28T07:36:10;33.50;;;15.00;;
34783;SDS011;20998;51.388;7.032;2024-02-28T07:38:36;39.17;;;14.53;;
34783;SDS011;20998;51.388;7.032;2024-02-28T07:41:03;33.50;;;14.97;;
34783;SDS011;20998;51.388;7.032;2024-02-28T07:43:29;40.50;;;14.67;;
34783;SDS011;20998;51.388;7.032;2024-02-28T07:45:58;29.57;;;12.33;;
34783;SDS011;20998;51.388;7.032;2024-02-28T07:48:24;42.30;;;14.47;;
34783;SDS011;20998;51.388;7.032;2024-02-28T07:50:50;42.53;;;12.57;;
34783;SDS011;20998;51.388;7.032;2024-02-28T07:53:19;44.10;;;14.60;;
34783;SDS011;20998;51.388;7.032;2024-02-28T07:55:44;40.63;;;14.13;;
34783;SDS011;20998;51.388;7.032;2024-02-28T07:58:10;35.10;;;14.67;;
34783;SDS011;20998;51.388;7.032;2024-02-28T08:00:36;35.20;;;13.83;;
34783;SDS011;20998;51.388;7.032;2024-02-28T08:03:02;35.13;;;12.10;;
34783;SDS011;20998;51.388;7.032;2024-02-28T08:05:28;50.67;;;14.23;;
34783;SDS011;20998;51.388;7.032;2024-02-28T08:07:54;34.13;;;12.73;;
34783;SDS011;20998;51.388;7.032;2024-02-28T08:10:20;40.27;;;13.20;;
34783;SDS011;20998;51.388;7.032;2024-02-28T08:12:46;32.87;;;11.03;;
34783;SDS011;20998;51.388;7.032;2024-02-28T08:15:12;28.17;;;12.57;;
34783;SDS011;20998;51.388;7.032;2024-02-28T08:17:38;31.53;;;12.83;;
34783;SDS011;20998;51.388;7.032;2024-02-28T08:20:04;38.97;;;14.97;;
34783;SDS011;20998;51.388;7.032;2024-02-28T08:22:31;43.70;;;14.33;;
34783;SDS011;20998;51.388;7.032;2024-02-28T08:24:56;37.67;;;12.47;;
34783;SDS011;20998;51.388;7.032;2024-02-28T08:27:22;38.93;;;13.07;;
34783;SDS011;20998;51.388;7.032;2024-02-28T08:29:49;42.33;;;12.47;;
34783;SDS011;20998;51.388;7.032;2024-02-28T08:32:15;31.00;;;11.07;;
34783;SDS011;20998;51.388;7.032;2024-02-28T08:34:44;34.93;;;14.23;;
34783;SDS011;20998;51.388;7.032;2024-02-28T08:37:14;43.50;;;13.87;;
34783;SDS011;20998;51.388;7.032;2024-02-28T08:39:40;34.03;;;12.93;;
34783;SDS011;20998;51.388;7.032;2024-02-28T08:42:06;38.63;;;13.50;;
34783;SDS011;20998;51.388;7.032;2024-02-28T08:44:32;32.70;;;11.60;;
34783;SDS011;20998;51.388;7.032;2024-02-28T08:46:58;33.77;;;12.47;;
34783;SDS011;20998;51.388;7.032;2024-02-28T08:49:24;29.97;;;13.33;;
34783;SDS011;20998;51.388;7.032;2024-02-28T08:51:51;35.70;;;13.23;;
34783;SDS011;20998;51.388;7.032;2024-02-28T08:54:17;30.40;;;11.90;;
34783;SDS011;20998;51.388;7.032;2024-02-28T08:56:43;33.20;;;11.97;;
34783;SDS011;20998;51.388;7.032;2024-02-28T08:59:09;39.30;;;11.03;;
34783;SDS011;20998;51.388;7.032;2024-02-28T09:01:35;44.83;;;11.83;;
34783;SDS011;20998;51.388;7.032;2024-02-28T09:04:01;32.43;;;12.23;;
34783;SDS011;20998;51.388;7.032;2024-02-28T09:06:28;51.83;;;14.50;;
34783;SDS011;20998;51.388;7.032;2024-02-28T09:08:54;37.40;;;12.97;;
34783;SDS011;20998;51.388;7.032;2024-02-28T09:11:20;38.03;;;11.40;;
34783;SDS011;20998;51.388;7.032;2024-02-28T09:13:46;39.57;;;11.63;;
34783;SDS011;20998;51.388;7.032;2024-02-28T09:16:12;32.73;;;12.47;;
34783;SDS011;20998;51.388;7.032;2024-02-28T09:18:38;41.63;;;13.20;;
34783;SDS011;20998;51.388;7.032;2024-02-28T09:21:04;38.80;;;14.23;;
34783;SDS011;20998;51.388;7.032;2024-02-28T09:23:30;27.53;;;10.63;;
34783;SDS011;20998;51.388;7.032;2024-02-28T09:25:56;36.13;;;11.60;;
34783;SDS011;20998;51.388;7.032;2024-02-28T09:28:22;35.67;;;13.30;;
34783;SDS011;20998;51.388;7.032;2024-02-28T09:30:48;34.27;;;13.63;;
34783;SDS011;20998;51.388;7.032;2024-02-28T09:33:15;42.37;;;12.83;;
34783;SDS011;20998;51.388;7.032;2024-02-28T09:35:44;36.63;;;13.70;;
34783;SDS011;20998;51.388;7.032;2024-02-28T09:38:10;36.07;;;13.27;;
34783;SDS011;20998;51.388;7.032;2024-02-28T09:40:36;36.83;;;12.00;;
34783;SDS011;20998;51.388;7.032;2024-02-28T09:43:03;33.37;;;12.37;;
34783;SDS011;20998;51.388;7.032;2024-02-28T09:45:30;33.87;;;10.77;;
34783;SDS011;20998;51.388;7.032;2024-02-28T09:48:00;35.40;;;11.90;;
34783;SDS011;20998;51.388;7.032;2024-02-28T09:50:26;44.13;;;13.87;;
34783;SDS011;20998;51.388;7.032;2024-02-28T09:52:52;37.77;;;11.57;;
34783;SDS011;20998;51.388;7.032;2024-02-28T09:55:19;24.50;;;10.83;;
34783;SDS011;20998;51.388;7.032;2024-02-28T09:57:47;38.20;;;13.07;;
34783;SDS011;20998;51.388;7.032;2024-02-28T10:00:13;24.17;;;10.07;;
34783;SDS011;20998;51.388;7.032;2024-02-28T10:02:41;26.53;;;11.17;;
34783;SDS011;20998;51.388;7.032;2024-02-28T10:05:09;34.17;;;11.33;;
34783;SDS011;20998;51.388;7.032;2024-02-28T10:07:35;38.67;;;12.57;;
34783;SDS011;20998;51.388;7.032;2024-02-28T10:10:01;28.07;;;11.37;;
34783;SDS011;20998;51.388;7.032;2024-02-28T10:12:28;27.33;;;11.93;;
34783;SDS011;20998;51.388;7.032;2024-02-28T10:14:54;27.73;;;11.93;;
34783;SDS011;20998;51.388;7.032;2024-02-28T10:17:20;22.10;;;9.53;;
34783;SDS011;20998;51.388;7.032;2024-02-28T10:19:46;24.87;;;12.07;;
34783;SDS011;20998;51.388;7.032;2024-02-28T10:22:12;24.40;;;9.90;;
34783;SDS011;20998;51.388;7.032;2024-02-28T10:24:38;29.73;;;10.67;;
34783;SDS011;20998;51.388;7.032;2024-02-28T10:27:04;25.93;;;11.13;;
34783;SDS011;20998;51.388;7.032;2024-02-28T10:29:30;32.20;;;11.83;;
34783;SDS011;20998;51.388;7.032;2024-02-28T10:31:58;29.73;;;12.30;;
34783;SDS011;20998;51.388;7.032;2024-02-28T10:34:24;29.57;;;11.90;;
34783;SDS011;20998;51.388;7.032;2024-02-28T10:36:50;26.73;;;10.40;;
34783;SDS011;20998;51.388;7.032;2024-02-28T10:39:17;25.40;;;9.87;;
34783;SDS011;20998;51.388;7.032;2024-02-28T10:41:45;18.10;;;8.37;;
34783;SDS011;20998;51.388;7.032;2024-02-28T10:44:13;29.27;;;10.23;;
34783;SDS011;20998;51.388;7.032;2024-02-28T10:46:40;23.87;;;9.93;;
34783;SDS011;20998;51.388;7.032;2024-02-28T10:49:06;21.53;;;9.57;;
34783;SDS011;20998;51.388;7.032;2024-02-28T10:51:35;27.13;;;10.07;;
34783;SDS011;20998;51.388;7.032;2024-02-28T10:54:10;21.83;;;7.73;;
34783;SDS011;20998;51.388;7.032;2024-02-28T10:56:37;19.33;;;9.40;;
34783;SDS011;20998;51.388;7.032;2024-02-28T10:59:07;21.17;;;8.03;;
34783;SDS011;20998;51.388;7.032;2024-02-28T11:01:35;16.67;;;8.57;;
34783;SDS011;20998;51.388;7.032;2024-02-28T11:04:02;23.83;;;11.07;;
34783;SDS011;20998;51.388;7.032;2024-02-28T11:06:28;20.00;;;8.83;;
34783;SDS011;20998;51.388;7.032;2024-02-28T11:08:54;18.20;;;8.00;;
34783;SDS011;20998;51.388;7.032;2024-02-28T11:11:21;23.30;;;10.13;;
34783;SDS011;20998;51.388;7.032;2024-02-28T11:13:54;14.77;;;6.83;;
34783;SDS011;20998;51.388;7.032;2024-02-28T11:16:30;28.50;;;10.13;;
34783;SDS011;20998;51.388;7.032;2024-02-28T11:18:56;18.67;;;9.43;;
34783;SDS011;20998;51.388;7.032;2024-02-28T11:21:26;20.80;;;10.70;;
34783;SDS011;20998;51.388;7.032;2024-02-28T11:23:53;18.93;;;9.70;;
34783;SDS011;20998;51.388;7.032;2024-02-28T11:26:23;20.87;;;7.93;;
34783;SDS011;20998;51.388;7.032;2024-02-28T11:28:49;18.63;;;8.10;;
34783;SDS011;20998;51.388;7.032;2024-02-28T11:31:15;24.20;;;10.07;;
34783;SDS011;20998;51.388;7.032;2024-02-28T11:33:43;27.70;;;10.30;;
34783;SDS011;20998;51.388;7.032;2024-02-28T11:36:11;23.67;;;9.73;;
34783;SDS011;20998;51.388;7.032;2024-02-28T11:38:38;22.03;;;9.67;;
34783;SDS011;20998;51.388;7.032;2024-02-28T11:41:04;17.43;;;7.97;;
34783;SDS011;20998;51.388;7.032;2024-02-28T11:43:31;19.07;;;9.10;;
34783;SDS011;20998;51.388;7.032;2024-02-28T11:45:57;20.27;;;9.40;;
34783;SDS011;20998;51.388;7.032;2024-02-28T11:48:24;18.07;;;8.93;;
34783;SDS011;20998;51.388;7.032;2024-02-28T11:50:51;14.20;;;8.10;;
34783;SDS011;20998;51.388;7.032;2024-02-28T11:53:17;18.93;;;10.47;;
34783;SDS011;20998;51.388;7.032;2024-02-28T11:55:45;30.13;;;10.27;;
34783;SDS011;20998;51.388;7.032;2024-02-28T11:58:12;28.10;;;11.53;;
34783;SDS011;20998;51.388;7.032;2024-02-28T12:00:48;23.80;;;9.73;;
34783;SDS011;20998;51.388;7.032;2024-02-28T12:03:14;21.70;;;9.67;;
34783;SDS011;20998;51.388;7.032;2024-02-28T12:05:42;21.63;;;9.33;;
34783;SDS011;20998;51.388;7.032;2024-02-28T12:08:09;22.17;;;10.57;;
34783;SDS011;20998;51.388;7.032;2024-02-28T12:10:35;28.33;;;9.07;;
34783;SDS011;20998;51.388;7.032;2024-02-28T12:13:01;27.13;;;11.33;;
34783;SDS011;20998;51.388;7.032;2024-02-28T12:15:31;21.27;;;9.67;;
34783;SDS011;20998;51.388;7.032;2024-02-28T12:17:57;26.37;;;9.50;;
34783;SDS011;20998;51.388;7.032;2024-02-28T12:20:23;23.03;;;9.53;;
34783;SDS011;20998;51.388;7.032;2024-02-28T12:22:49;20.00;;;8.87;;
34783;SDS011;20998;51.388;7.032;2024-02-28T12:25:15;21.93;;;8.33;;
34783;SDS011;20998;51.388;7.032;2024-02-28T12:27:41;17.07;;;7.93;;
34783;SDS011;20998;51.388;7.032;2024-02-28T12:30:07;19.00;;;8.33;;
34783;SDS011;20998;51.388;7.032;2024-02-28T12:32:33;21.73;;;8.70;;
34783;SDS011;20998;51.388;7.032;2024-02-28T12:34:59;16.80;;;8.43;;
34783;SDS011;20998;51.388;7.032;2024-02-28T12:37:25;15.83;;;8.53;;
34783;SDS011;20998;51.388;7.032;2024-02-28T12:39:53;19.57;;;9.07;;
34783;SDS011;20998;51.388;7.032;2024-02-28T12:42:19;17.03;;;8.67;;
34783;SDS011;20998;51.388;7.032;2024-02-28T12:44:45;20.73;;;8.80;;
34783;SDS011;20998;51.388;7.032;2024-02-28T12:47:11;25.07;;;8.83;;
34783;SDS011;20998;51.388;7.032;2024-02-28T12:49:37;17.93;;;8.00;;
34783;SDS011;20998;51.388;7.032;2024-02-28T12:52:03;21.00;;;8.03;;
34783;SDS011;20998;51.388;7.032;2024-02-28T12:54:29;19.17;;;7.80;;
34783;SDS011;20998;51.388;7.032;2024-02-28T12:56:55;20.93;;;8.27;;
34783;SDS011;20998;51.388;7.032;2024-02-28T12:59:21;19.93;;;8.13;;
34783;SDS011;20998;51.388;7.032;2024-02-28T13:01:47;20.43;;;9.17;;
34783;SDS011;20998;51.388;7.032;2024-02-28T13:04:13;17.60;;;7.30;;
34783;SDS011;20998;51.388;7.032;2024-02-28T13:06:39;21.57;;;7.43;;
34783;SDS011;20998;51.388;7.032;2024-02-28T13:09:05;19.90;;;8.60;;
34783;SDS011;20998;51.388;7.032;2024-02-28T13:11:37;21.50;;;8.27;;
34783;SDS011;20998;51.388;7.032;2024-02-28T13:14:03;19.87;;;8.63;;
34783;SDS011;20998;51.388;7.032;2024-02-28T13:16:29;17.87;;;8.50;;
34783;SDS011;20998;51.388;7.032;2024-02-28T13:18:55;21.30;;;10.17;;
34783;SDS011;20998;51.388;7.032;2024-02-28T13:21:21;13.73;;;6.23;;
34783;SDS011;20998;51.388;7.032;2024-02-28T13:23:48;14.97;;;6.57;;
34783;SDS011;20998;51.388;7.032;2024-02-28T13:26:14;12.57;;;6.57;;
34783;SDS011;20998;51.388;7.032;2024-02-28T13:28:43;18.50;;;7.67;;
34783;SDS011;20998;51.388;7.032;2024-02-28T13:31:09;17.23;;;7.47;;
34783;SDS011;20998;51.388;7.032;2024-02-28T13:33:36;16.50;;;7.73;;
34783;SDS011;20998;51.388;7.032;2024-02-28T13:36:02;20.53;;;8.03;;
34783;SDS011;20998;51.388;7.032;2024-02-28T13:38:28;20.67;;;7.93;;
34783;SDS011;20998;51.388;7.032;2024-02-28T13:40:55;20.27;;;8.67;;
34783;SDS011;20998;51.388;7.032;2024-02-28T13:43:21;16.70;;;7.87;;
34783;SDS011;20998;51.388;7.032;2024-02-28T13:45:48;18.17;;;7.50;;
34783;SDS011;20998;51.388;7.032;2024-02-28T13:48:24;21.57;;;9.47;;
34783;SDS011;20998;51.388;7.032;2024-02-28T13:50:50;24.73;;;9.67;;
34783;SDS011;20998;51.388;7.032;2024-02-28T13:53:20;23.30;;;10.17;;
34783;SDS011;20998;51.388;7.032;2024-02-28T13:55:46;19.37;;;9.27;;
34783;SDS011;20998;51.388;7.032;2024-02-28T13:58:12;22.93;;;9.70;;
34783;SDS011;20998;51.388;7.032;2024-02-28T14:00:39;23.47;;;10.97;;
34783;SDS011;20998;51.388;7.032;2024-02-28T14:03:05;24.23;;;10.90;;
34783;SDS011;20998;51.388;7.032;2024-02-28T14:05:31;17.80;;;9.37;;
34783;SDS011;20998;51.388;7.032;2024-02-28T14:07:58;26.87;;;12.67;;
34783;SDS011;20998;51.388;7.032;2024-02-28T14:10:24;16.73;;;9.30;;
34783;SDS011;20998;51.388;7.032;2024-02-28T14:12:50;22.53;;;10.13;;
34783;SDS011;20998;51.388;7.032;2024-02-28T14:15:19;19.73;;;7.67;;
34783;SDS011;20998;51.388;7.032;2024-02-28T14:17:45;27.93;;;8.80;;
34783;SDS011;20998;51.388;7.032;2024-02-28T14:20:12;18.50;;;8.53;;
34783;SDS011;20998;51.388;7.032;2024-02-28T14:22:38;24.03;;;9.33;;